Time;durP1;ratioP1;P1;durP2;ratioP2;P2;SDS_P1;SDS_P2;PMS_P1;PMS_P2;Temp;Humidity;BMP_temperature;BMP_pressure;BME280_temperature;BME280_humidity;BME280_pressure;Samples;Min_cycle;Max_cycle;Signal;HPM_P1;HPM_P2
2023/11/03 00:00:05;;;;;;;5.10;1.07;;;8.40;99.90;;;;;;5019624;28;20164;-82
2023/11/03 00:02:31;;;;;;;4.73;1.47;;;8.40;99.90;;;;;;5021070;28;20022;-82
2023/11/03 00:04:58;;;;;;;2.33;0.70;;;8.40;99.90;;;;;;5023381;28;20022;-82
2023/11/03 00:07:24;;;;;;;3.83;0.90;;;8.40;99.90;;;;;;5023596;28;20123;-82
2023/11/03 00:09:51;;;;;;;3.40;0.90;;;8.40;99.90;;;;;;5024504;28;20093;-82
2023/11/03 00:12:17;;;;;;;4.57;0.80;;;8.50;99.90;;;;;;5022823;28;20121;-82
2023/11/03 00:14:43;;;;;;;4.33;0.80;;;8.50;99.90;;;;;;5024001;28;20017;-82
2023/11/03 00:17:09;;;;;;;2.50;0.60;;;8.50;99.90;;;;;;5022446;28;20056;-82
2023/11/03 00:19:35;;;;;;;2.07;0.70;;;8.50;99.90;;;;;;5025292;28;20014;-81
2023/11/03 00:22:02;;;;;;;2.33;0.80;;;8.50;99.90;;;;;;5023674;28;20014;-82
2023/11/03 00:24:28;;;;;;;3.83;0.80;;;8.50;99.90;;;;;;5023772;28;20037;-81
2023/11/03 00:26:54;;;;;;;4.10;0.80;;;8.50;99.90;;;;;;5024454;28;20021;-82
2023/11/03 00:29:21;;;;;;;5.53;0.77;;;8.50;99.90;;;;;;5022739;28;20109;-81
2023/11/03 00:31:46;;;;;;;3.23;0.70;;;8.50;99.90;;;;;;5024083;28;20034;-82
2023/11/03 00:34:16;;;;;;;5.00;1.20;;;8.50;99.90;;;;;;5023395;28;20021;-81
2023/11/03 00:36:44;;;;;;;3.67;0.60;;;8.50;99.90;;;;;;5024926;28;20034;-82
2023/11/03 00:39:12;;;;;;;3.50;0.60;;;8.50;99.90;;;;;;5024722;28;20034;-81
2023/11/03 00:41:50;;;;;;;2.73;0.60;;;8.50;99.90;;;;;;5024327;28;20018;-82
2023/11/03 00:44:17;;;;;;;6.13;0.90;;;8.50;99.90;;;;;;5025472;28;20335;-82
2023/11/03 00:46:43;;;;;;;3.30;0.70;;;8.60;99.90;;;;;;5022712;28;20088;-82
2023/11/03 00:49:10;;;;;;;4.07;0.70;;;8.60;99.90;;;;;;5023508;28;20506;-83
2023/11/03 00:51:36;;;;;;;5.63;0.60;;;8.60;99.90;;;;;;5022702;28;20034;-83
2023/11/03 00:54:06;;;;;;;2.60;0.70;;;8.50;99.90;;;;;;5024360;28;20030;-83
2023/11/03 00:56:39;;;;;;;4.13;0.70;;;8.60;99.90;;;;;;5022961;28;20025;-82
2023/11/03 00:59:07;;;;;;;2.53;0.68;;;8.50;99.90;;;;;;5023542;28;20022;-83
2023/11/03 01:01:33;;;;;;;3.53;0.73;;;8.50;99.90;;;;;;5023118;28;20057;-83
2023/11/03 01:03:59;;;;;;;6.73;0.63;;;8.60;99.90;;;;;;5022134;28;20032;-83
2023/11/03 01:06:25;;;;;;;4.30;0.67;;;8.50;99.90;;;;;;5023170;28;20053;-82
2023/11/03 01:08:51;;;;;;;3.97;0.80;;;8.50;99.90;;;;;;5022249;28;20036;-83
2023/11/03 01:11:17;;;;;;;2.90;0.50;;;8.60;99.90;;;;;;5022520;28;20045;-82
2023/11/03 01:13:43;;;;;;;1.57;0.53;;;8.50;99.90;;;;;;5028538;28;20029;-82
2023/11/03 01:16:09;;;;;;;2.70;0.50;;;8.50;99.90;;;;;;5028005;28;20054;-83
2023/11/03 01:18:39;;;;;;;3.30;0.43;;;8.50;99.90;;;;;;5031621;28;20076;-82
2023/11/03 01:21:12;;;;;;;2.70;0.50;;;8.60;99.90;;;;;;5021635;28;20018;-82
2023/11/03 01:23:41;;;;;;;1.33;0.43;;;8.50;99.90;;;;;;5022497;28;20026;-82
2023/11/03 01:26:10;;;;;;;1.43;0.50;;;8.60;99.90;;;;;;5022218;28;20064;-82
2023/11/03 01:28:36;;;;;;;1.97;0.50;;;8.60;99.90;;;;;;5021360;28;20033;-83
2023/11/03 01:31:04;;;;;;;3.43;0.67;;;8.60;99.90;;;;;;5022715;28;20044;-82
2023/11/03 01:33:30;;;;;;;4.93;0.50;;;8.60;99.90;;;;;;5021221;28;20030;-83
2023/11/03 01:35:57;;;;;;;2.30;0.70;;;8.60;99.90;;;;;;5023028;28;20114;-83
2023/11/03 01:38:22;;;;;;;3.53;0.50;;;8.60;99.90;;;;;;5021192;28;20079;-83
2023/11/03 01:40:48;;;;;;;2.23;0.40;;;8.60;99.90;;;;;;5022242;28;20053;-83
2023/11/03 01:43:14;;;;;;;3.93;0.73;;;8.70;99.90;;;;;;5021416;28;20049;-82
2023/11/03 01:45:40;;;;;;;2.87;0.50;;;8.70;99.90;;;;;;5021733;28;20031;-82
2023/11/03 01:48:06;;;;;;;4.13;0.40;;;8.70;99.90;;;;;;5022324;28;20096;-83
2023/11/03 01:50:33;;;;;;;2.33;0.67;;;8.70;99.90;;;;;;5022337;28;20037;-82
2023/11/03 01:53:00;;;;;;;4.00;0.50;;;8.70;99.90;;;;;;5022445;28;20021;-82
2023/11/03 01:55:26;;;;;;;4.47;0.57;;;8.70;99.90;;;;;;5022816;28;20017;-82
2023/11/03 01:57:51;;;;;;;1.67;0.50;;;8.70;99.90;;;;;;5030315;28;20085;-82
2023/11/03 02:00:19;;;;;;;3.13;0.60;;;8.70;99.90;;;;;;5021444;28;20014;-82
2023/11/03 02:02:46;;;;;;;1.93;0.47;;;8.70;99.90;;;;;;5021412;28;20030;-84
2023/11/03 02:05:11;;;;;;;1.50;0.40;;;8.80;99.90;;;;;;5022054;28;20041;-82
2023/11/03 02:07:37;;;;;;;4.70;0.60;;;8.80;99.90;;;;;;5020764;28;20022;-82
2023/11/03 02:10:07;;;;;;;3.47;0.50;;;8.80;99.90;;;;;;5032369;28;20021;-83
2023/11/03 02:12:33;;;;;;;4.37;0.40;;;8.80;99.90;;;;;;5020399;28;20037;-83
2023/11/03 02:14:58;;;;;;;2.73;0.50;;;8.90;99.90;;;;;;5021824;28;20026;-82
2023/11/03 02:17:24;;;;;;;3.20;0.70;;;8.80;99.90;;;;;;5020765;28;20034;-82
2023/11/03 02:19:50;;;;;;;1.83;0.50;;;8.90;99.90;;;;;;5021382;28;20029;-82
2023/11/03 02:22:16;;;;;;;2.93;0.70;;;8.90;99.90;;;;;;5021813;28;20018;-82
2023/11/03 02:24:43;;;;;;;6.83;0.60;;;8.90;99.90;;;;;;5020965;28;20028;-82
2023/11/03 02:27:08;;;;;;;1.00;0.60;;;8.90;99.90;;;;;;5020649;28;20392;-83
2023/11/03 02:29:34;;;;;;;3.40;0.50;;;8.90;99.90;;;;;;5020150;28;20045;-83
2023/11/03 02:32:00;;;;;;;2.70;0.60;;;9.00;99.90;;;;;;5021689;28;20068;-83
2023/11/03 02:34:26;;;;;;;1.97;0.40;;;9.00;99.90;;;;;;5020756;28;20018;-82
2023/11/03 02:36:52;;;;;;;2.87;0.50;;;9.00;99.90;;;;;;5021154;28;20049;-83
2023/11/03 02:39:18;;;;;;;1.93;0.40;;;9.00;99.90;;;;;;5021006;28;20033;-82
2023/11/03 02:41:44;;;;;;;3.10;0.53;;;9.00;99.90;;;;;;5020045;28;20113;-83
2023/11/03 02:44:10;;;;;;;3.33;0.60;;;9.00;99.90;;;;;;5021725;28;20018;-82
2023/11/03 02:46:35;;;;;;;2.33;0.60;;;9.10;99.90;;;;;;5019919;28;20064;-82
2023/11/03 02:49:01;;;;;;;2.03;0.40;;;9.10;99.90;;;;;;5021358;28;20022;-82
2023/11/03 02:51:27;;;;;;;3.43;0.50;;;9.10;99.90;;;;;;5027115;28;20033;-82
2023/11/03 02:53:52;;;;;;;3.93;0.57;;;9.10;99.90;;;;;;5027964;28;20025;-82
2023/11/03 02:56:24;;;;;;;4.77;0.50;;;9.10;99.90;;;;;;5020478;28;20084;-82
2023/11/03 02:58:52;;;;;;;4.47;0.70;;;9.10;99.90;;;;;;5020132;28;20056;-82
2023/11/03 03:01:24;;;;;;;3.40;0.50;;;9.20;99.90;;;;;;5021436;28;20048;-82
2023/11/03 03:03:50;;;;;;;9.63;0.73;;;9.20;99.90;;;;;;5020128;28;20142;-82
2023/11/03 03:06:15;;;;;;;2.00;0.50;;;9.20;99.90;;;;;;5021172;28;20057;-82
2023/11/03 03:08:41;;;;;;;3.87;0.97;;;9.20;99.90;;;;;;5020074;28;20025;-81
2023/11/03 03:11:07;;;;;;;4.80;1.00;;;9.20;99.90;;;;;;5020342;28;20125;-82
2023/11/03 03:13:32;;;;;;;2.17;0.60;;;9.20;99.90;;;;;;5020999;28;20018;-82
2023/11/03 03:15:58;;;;;;;4.03;0.60;;;9.30;99.90;;;;;;5019898;28;20168;-81
2023/11/03 03:18:24;;;;;;;2.83;0.57;;;9.30;99.90;;;;;;5021115;28;20030;-82
2023/11/03 03:20:50;;;;;;;3.10;0.53;;;9.30;99.90;;;;;;5021151;28;20369;-82
2023/11/03 03:23:16;;;;;;;3.77;0.40;;;9.30;99.90;;;;;;5028616;28;20080;-82
2023/11/03 03:25:41;;;;;;;6.00;0.70;;;9.30;99.90;;;;;;5023893;28;20030;-82
2023/11/03 03:28:07;;;;;;;5.27;0.57;;;9.30;99.90;;;;;;5020281;28;20037;-82
2023/11/03 03:30:33;;;;;;;2.47;0.60;;;9.30;99.90;;;;;;5020513;28;20020;-81
2023/11/03 03:32:58;;;;;;;4.63;0.50;;;9.30;99.90;;;;;;5020089;28;20014;-81
2023/11/03 03:35:24;;;;;;;3.13;0.60;;;9.40;99.90;;;;;;5022409;28;20022;-82
2023/11/03 03:37:50;;;;;;;5.17;0.80;;;9.40;99.90;;;;;;5021143;28;20014;-82
2023/11/03 03:40:15;;;;;;;6.00;0.70;;;9.40;99.90;;;;;;5026022;28;20030;-82
2023/11/03 03:42:42;;;;;;;5.53;0.70;;;9.40;99.90;;;;;;5025270;28;20022;-82
2023/11/03 03:45:09;;;;;;;2.37;0.60;;;9.40;99.90;;;;;;5025845;28;20026;-82
2023/11/03 03:47:35;;;;;;;2.70;0.60;;;9.40;99.90;;;;;;5023721;28;20488;-82
2023/11/03 03:50:02;;;;;;;4.37;0.70;;;9.40;99.90;;;;;;5023928;28;20034;-82
2023/11/03 03:52:28;;;;;;;5.70;0.80;;;9.40;99.90;;;;;;5024737;28;20029;-82
2023/11/03 03:54:54;;;;;;;3.10;0.70;;;9.40;99.90;;;;;;5023477;28;20053;-82
2023/11/03 03:57:19;;;;;;;2.93;0.57;;;9.40;99.90;;;;;;5026774;28;20068;-82
2023/11/03 03:59:45;;;;;;;6.67;1.07;;;9.40;99.90;;;;;;5024907;28;20034;-81
2023/11/03 04:02:11;;;;;;;4.27;0.70;;;9.40;99.90;;;;;;5025326;28;20026;-82
2023/11/03 04:04:38;;;;;;;4.97;0.80;;;9.40;99.90;;;;;;5024799;28;20026;-82
2023/11/03 04:07:03;;;;;;;5.43;0.70;;;9.40;99.90;;;;;;5024849;28;20096;-81
2023/11/03 04:09:29;;;;;;;4.20;1.13;;;9.40;99.90;;;;;;5025641;28;20030;-81
2023/11/03 04:11:54;;;;;;;3.03;0.70;;;9.40;99.90;;;;;;5024236;28;20056;-80
2023/11/03 04:14:20;;;;;;;7.57;0.93;;;9.40;99.90;;;;;;5024387;28;20482;-82
2023/11/03 04:16:46;;;;;;;4.80;1.13;;;9.40;99.90;;;;;;5022836;28;20029;-82
2023/11/03 04:19:12;;;;;;;6.60;1.13;;;9.40;99.90;;;;;;5025509;28;20022;-82
2023/11/03 04:21:37;;;;;;;5.23;1.00;;;9.40;99.90;;;;;;5023367;28;20038;-82
2023/11/03 04:24:03;;;;;;;5.80;0.80;;;9.40;99.90;;;;;;5023123;28;20060;-83
2023/11/03 04:26:29;;;;;;;5.33;1.10;;;9.40;99.90;;;;;;5023766;28;20032;-84
2023/11/03 04:28:55;;;;;;;8.03;1.20;;;9.30;99.90;;;;;;5022370;28;20053;-83
2023/11/03 04:31:21;;;;;;;5.00;0.80;;;9.30;99.90;;;;;;5024136;28;20044;-83
2023/11/03 04:33:47;;;;;;;6.37;1.00;;;9.30;99.90;;;;;;5022604;28;20025;-83
2023/11/03 04:36:13;;;;;;;4.13;0.80;;;9.20;99.90;;;;;;5025192;28;20363;-83
2023/11/03 04:38:38;;;;;;;5.57;0.80;;;9.10;99.90;;;;;;5023620;28;20057;-83
2023/11/03 04:41:04;;;;;;;4.43;1.13;;;9.10;99.90;;;;;;5024731;28;20033;-83
2023/11/03 04:43:35;;;;;;;3.47;0.90;;;9.00;99.90;;;;;;5023286;28;20026;-83
2023/11/03 04:46:05;;;;;;;7.60;1.00;;;9.00;99.90;;;;;;5023763;28;20121;-83
2023/11/03 04:48:31;;;;;;;5.43;0.83;;;8.90;99.90;;;;;;5023582;28;20030;-83
2023/11/03 04:50:57;;;;;;;3.23;0.80;;;8.90;99.90;;;;;;5021618;28;20061;-83
2023/11/03 04:53:23;;;;;;;6.03;0.97;;;8.90;99.90;;;;;;5023058;28;20021;-83
2023/11/03 04:55:49;;;;;;;5.73;1.03;;;8.80;99.90;;;;;;5022662;28;20045;-82
2023/11/03 04:58:20;;;;;;;5.07;0.87;;;8.80;99.90;;;;;;5022777;28;20052;-83
2023/11/03 05:00:47;;;;;;;3.87;1.10;;;8.80;99.90;;;;;;5023152;28;20022;-83
2023/11/03 05:03:14;;;;;;;9.50;1.20;;;8.80;99.90;;;;;;5006436;28;20375;-83
2023/11/03 05:05:40;;;;;;;8.90;1.17;;;8.80;99.90;;;;;;5023595;28;20037;-83
2023/11/03 05:08:05;;;;;;;8.53;1.50;;;8.80;99.90;;;;;;5023056;28;20026;-83
2023/11/03 05:10:32;;;;;;;6.93;1.47;;;8.80;99.90;;;;;;5023030;28;20034;-82
2023/11/03 05:12:58;;;;;;;6.90;1.37;;;8.80;99.90;;;;;;5023501;28;20045;-82
2023/11/03 05:15:24;;;;;;;4.17;1.13;;;8.80;99.90;;;;;;5028729;28;20021;-82
2023/11/03 05:17:49;;;;;;;4.97;1.60;;;8.80;99.90;;;;;;5027374;28;20057;-82
2023/11/03 05:20:15;;;;;;;8.20;1.43;;;8.80;99.90;;;;;;5022419;28;20554;-83
2023/11/03 05:22:41;;;;;;;13.10;2.27;;;8.80;99.90;;;;;;5028779;28;20496;-82
2023/11/03 05:25:07;;;;;;;8.77;2.20;;;8.80;99.90;;;;;;5042281;28;20032;-83
2023/11/03 05:27:33;;;;;;;7.33;1.13;;;8.90;99.90;;;;;;5042028;28;20017;-82
2023/11/03 05:29:59;;;;;;;8.43;1.43;;;8.80;99.90;;;;;;5041284;28;20024;-83
2023/11/03 05:32:25;;;;;;;5.50;1.23;;;8.90;99.90;;;;;;5042203;28;20097;-83
2023/11/03 05:34:51;;;;;;;6.33;1.00;;;8.90;99.90;;;;;;5043502;28;20112;-81
2023/11/03 05:37:16;;;;;;;8.87;1.10;;;8.90;99.90;;;;;;5041165;28;20022;-82
2023/11/03 05:39:42;;;;;;;6.60;1.03;;;8.90;99.90;;;;;;5042659;28;20026;-81
2023/11/03 05:42:08;;;;;;;6.57;1.00;;;8.90;99.90;;;;;;5040727;28;20036;-81
2023/11/03 05:44:33;;;;;;;10.37;1.40;;;8.90;99.90;;;;;;5042528;28;20026;-81
2023/11/03 05:47:00;;;;;;;6.40;1.27;;;8.90;99.90;;;;;;5040964;28;20045;-81
2023/11/03 05:49:29;;;;;;;9.17;1.30;;;8.90;99.90;;;;;;5043213;28;20063;-81
2023/11/03 05:51:55;;;;;;;11.07;1.37;;;9.00;99.90;;;;;;5041583;28;20038;-81
2023/11/03 05:54:21;;;;;;;7.10;1.27;;;9.00;99.90;;;;;;5040914;28;20543;-81
2023/11/03 05:56:47;;;;;;;14.40;1.40;;;9.00;99.90;;;;;;5042334;28;20030;-81
2023/11/03 05:59:12;;;;;;;9.43;1.30;;;9.10;99.90;;;;;;5040626;28;20466;-80
2023/11/03 06:01:38;;;;;;;10.23;1.33;;;9.00;99.90;;;;;;5042238;28;20030;-81
2023/11/03 06:04:04;;;;;;;5.00;1.10;;;9.10;99.90;;;;;;5040695;28;20093;-81
2023/11/03 06:06:29;;;;;;;8.63;1.50;;;9.10;99.90;;;;;;5041481;28;20017;-80
2023/11/03 06:08:55;;;;;;;8.63;1.10;;;9.10;99.90;;;;;;5041220;28;20018;-80
2023/11/03 06:11:22;;;;;;;8.60;1.93;;;9.10;99.90;;;;;;5041038;28;20038;-81
2023/11/03 06:13:48;;;;;;;8.83;1.10;;;9.10;99.90;;;;;;5043167;28;20033;-80
2023/11/03 06:16:14;;;;;;;11.53;1.70;;;9.10;99.90;;;;;;5040524;28;20033;-80
2023/11/03 06:18:43;;;;;;;12.63;1.20;;;9.20;99.90;;;;;;5041765;28;20469;-80
2023/11/03 06:21:09;;;;;;;12.47;1.90;;;9.20;99.90;;;;;;5040479;28;20033;-80
2023/11/03 06:23:35;;;;;;;11.43;1.70;;;9.20;99.90;;;;;;5041099;28;20033;-79
2023/11/03 06:26:04;;;;;;;9.73;1.60;;;9.20;99.90;;;;;;5040832;28;20052;-79
2023/11/03 06:28:29;;;;;;;9.83;1.70;;;9.20;99.90;;;;;;5040560;28;20026;-80
2023/11/03 06:30:55;;;;;;;9.73;1.63;;;9.20;99.90;;;;;;5041527;28;20034;-80
2023/11/03 06:33:21;;;;;;;11.37;1.77;;;9.20;99.90;;;;;;5039359;28;20021;-80
2023/11/03 06:35:47;;;;;;;7.30;1.33;;;9.20;99.90;;;;;;5041883;28;20025;-80
2023/11/03 06:38:14;;;;;;;9.00;1.27;;;9.20;99.90;;;;;;5040502;28;20020;-80
2023/11/03 06:40:40;;;;;;;12.87;1.47;;;9.20;99.90;;;;;;5039898;28;20014;-80
2023/11/03 06:43:06;;;;;;;7.70;1.30;;;9.20;99.90;;;;;;5037276;28;20029;-79
2023/11/03 06:45:32;;;;;;;5.83;1.03;;;9.10;99.90;;;;;;5040875;28;20386;-80
2023/11/03 06:47:59;;;;;;;11.10;1.90;;;9.20;99.90;;;;;;5039838;28;20037;-79
2023/11/03 06:50:25;;;;;;;11.97;1.97;;;9.10;99.90;;;;;;5039233;28;20029;-80
2023/11/03 06:52:50;;;;;;;9.33;1.33;;;9.10;99.90;;;;;;5040666;28;20071;-80
2023/11/03 06:55:17;;;;;;;7.93;1.20;;;9.10;99.90;;;;;;5038086;28;20024;-80
2023/11/03 06:57:43;;;;;;;8.37;1.70;;;9.10;99.90;;;;;;5040566;28;20024;-80
2023/11/03 07:00:12;;;;;;;9.10;1.37;;;9.10;99.90;;;;;;5039958;28;20021;-79
2023/11/03 07:02:38;;;;;;;10.50;1.63;;;9.10;99.90;;;;;;5035776;28;20026;-80
2023/11/03 07:05:04;;;;;;;11.23;1.50;;;9.10;99.90;;;;;;5029718;28;20085;-80
2023/11/03 07:07:30;;;;;;;5.43;0.87;;;9.10;99.90;;;;;;5027247;28;20076;-80
2023/11/03 07:09:56;;;;;;;9.07;1.00;;;9.10;99.90;;;;;;5030601;28;20022;-80
2023/11/03 07:12:21;;;;;;;10.93;1.40;;;9.10;99.90;;;;;;5021606;28;20037;-80
2023/11/03 07:14:47;;;;;;;11.23;1.57;;;9.10;99.90;;;;;;5020740;28;20030;-80
2023/11/03 07:17:13;;;;;;;9.40;1.30;;;9.10;99.90;;;;;;5019702;28;20072;-80
2023/11/03 07:19:40;;;;;;;12.00;1.13;;;9.10;99.90;;;;;;5020200;28;20026;-80
2023/11/03 07:22:05;;;;;;;11.30;1.07;;;9.10;99.90;;;;;;5020050;28;20113;-81
2023/11/03 07:24:31;;;;;;;11.83;1.80;;;9.10;99.90;;;;;;5019393;28;20026;-81
2023/11/03 07:26:58;;;;;;;9.40;1.20;;;9.10;99.90;;;;;;5021224;28;20057;-81
2023/11/03 07:29:24;;;;;;;7.30;1.17;;;9.10;99.90;;;;;;5020392;28;20065;-81
2023/11/03 07:31:50;;;;;;;8.20;1.50;;;9.10;99.90;;;;;;5022092;28;20041;-81
2023/11/03 07:34:18;;;;;;;7.03;1.07;;;9.10;99.90;;;;;;5021837;28;20033;-80
2023/11/03 07:36:45;;;;;;;12.50;1.30;;;9.10;99.90;;;;;;5022103;28;20120;-82
2023/11/03 07:39:11;;;;;;;10.43;1.83;;;9.10;99.90;;;;;;5029954;28;20028;-80
2023/11/03 07:41:37;;;;;;;9.50;1.13;;;9.20;99.90;;;;;;5041506;28;20033;-82
2023/11/03 07:44:03;;;;;;;7.80;1.53;;;9.20;99.90;;;;;;5042202;28;20085;-82
2023/11/03 07:46:32;;;;;;;6.67;1.20;;;9.20;99.90;;;;;;5038993;28;20128;-83
2023/11/03 07:48:59;;;;;;;7.83;1.70;;;9.20;99.90;;;;;;5040248;28;20100;-80
2023/11/03 07:51:25;;;;;;;14.17;1.10;;;9.20;99.90;;;;;;5039592;28;20041;-83
2023/11/03 07:53:52;;;;;;;10.23;1.37;;;9.20;99.90;;;;;;5040163;28;20112;-83
2023/11/03 07:56:18;;;;;;;9.43;1.17;;;9.30;99.90;;;;;;5040255;28;20021;-83
2023/11/03 07:58:45;;;;;;;9.67;1.63;;;9.30;99.90;;;;;;5039345;28;20497;-83
2023/11/03 08:01:11;;;;;;;10.80;1.80;;;9.30;99.90;;;;;;5040243;28;20041;-82
2023/11/03 08:03:37;;;;;;;7.00;0.97;;;9.40;99.90;;;;;;5039135;28;20028;-83
2023/11/03 08:06:05;;;;;;;11.50;1.23;;;9.40;99.90;;;;;;5039991;28;20028;-81
2023/11/03 08:08:31;;;;;;;11.10;1.10;;;9.40;99.90;;;;;;5039582;28;20022;-83
2023/11/03 08:10:57;;;;;;;10.60;1.60;;;9.50;99.90;;;;;;5040145;28;20049;-83
2023/11/03 08:13:23;;;;;;;7.77;1.37;;;9.50;99.90;;;;;;5040033;28;20382;-82
2023/11/03 08:15:50;;;;;;;7.00;0.80;;;9.60;99.90;;;;;;5039088;28;20026;-82
2023/11/03 08:18:16;;;;;;;9.47;1.07;;;9.60;99.90;;;;;;5040610;28;20120;-82
2023/11/03 08:20:42;;;;;;;7.17;0.90;;;9.70;99.90;;;;;;5039065;28;20025;-83
2023/11/03 08:23:09;;;;;;;8.33;1.67;;;9.70;99.90;;;;;;5041943;28;20031;-83
2023/11/03 08:25:35;;;;;;;11.60;1.50;;;9.80;99.90;;;;;;5042017;28;20033;-83
2023/11/03 08:28:01;;;;;;;6.97;1.20;;;9.80;99.90;;;;;;5042969;28;20076;-79
2023/11/03 08:30:27;;;;;;;8.80;1.20;;;10.00;99.90;;;;;;5042903;28;20022;-83
2023/11/03 08:32:53;;;;;;;7.50;1.40;;;10.00;99.90;;;;;;5042657;28;20067;-82
2023/11/03 08:35:20;;;;;;;7.37;0.90;;;10.20;99.90;;;;;;5043906;28;20026;-83
2023/11/03 08:37:47;;;;;;;7.78;1.42;;;10.30;99.90;;;;;;5042464;28;20036;-82
2023/11/03 08:40:16;;;;;;;4.10;0.70;;;10.40;99.90;;;;;;5043729;28;20049;-80
2023/11/03 08:42:45;;;;;;;12.63;1.10;;;10.50;99.90;;;;;;5042250;28;20036;-82
2023/11/03 08:45:12;;;;;;;8.52;1.10;;;10.60;99.90;;;;;;5042850;28;20025;-83
2023/11/03 08:47:41;;;;;;;12.40;1.33;;;10.70;99.90;;;;;;5042901;28;20064;-80
2023/11/03 08:50:11;;;;;;;7.15;0.93;;;10.80;99.90;;;;;;5042611;28;20366;-80
2023/11/03 08:52:37;;;;;;;9.13;1.10;;;10.90;99.90;;;;;;5043608;28;20072;-82
2023/11/03 08:55:07;;;;;;;7.75;0.90;;;11.00;99.90;;;;;;5043345;28;20021;-81
2023/11/03 08:57:38;;;;;;;7.80;1.33;;;11.10;99.90;;;;;;5042837;28;20021;-83
2023/11/03 09:00:09;;;;;;;9.20;0.98;;;11.10;99.90;;;;;;5041715;28;20034;-83
2023/11/03 09:02:40;;;;;;;14.25;1.58;;;11.20;99.90;;;;;;5042586;28;20033;-83
2023/11/03 09:05:09;;;;;;;12.70;1.35;;;11.20;99.90;;;;;;5043177;28;20026;-83
2023/11/03 09:07:35;;;;;;;12.07;1.63;;;11.20;99.50;;;;;;5041925;28;20034;-83
2023/11/03 09:10:06;;;;;;;7.97;1.17;;;11.30;99.40;;;;;;5043319;28;20027;-83
2023/11/03 09:12:32;;;;;;;9.98;1.15;;;11.20;98.90;;;;;;5041393;28;20033;-83
2023/11/03 09:14:58;;;;;;;12.65;1.60;;;11.30;99.10;;;;;;5042438;28;20036;-81
2023/11/03 09:17:24;;;;;;;7.32;1.20;;;11.30;99.00;;;;;;5043696;28;20033;-81
2023/11/03 09:19:50;;;;;;;17.25;1.30;;;11.30;98.40;;;;;;5042322;28;20022;-81
2023/11/03 09:22:16;;;;;;;8.13;1.10;;;11.40;98.50;;;;;;5043022;28;20416;-81
2023/11/03 09:24:42;;;;;;;8.60;1.33;;;11.40;98.50;;;;;;5041152;28;20048;-81
2023/11/03 09:27:08;;;;;;;10.18;1.63;;;11.40;98.50;;;;;;5042247;28;20056;-81
2023/11/03 09:29:34;;;;;;;10.90;1.50;;;11.50;98.20;;;;;;5041052;28;20025;-81
2023/11/03 09:32:00;;;;;;;16.92;1.73;;;11.60;98.10;;;;;;5043864;28;20033;-81
2023/11/03 09:34:27;;;;;;;8.93;1.38;;;11.70;98.10;;;;;;5043103;28;20025;-81
2023/11/03 09:36:53;;;;;;;10.43;1.45;;;11.90;98.00;;;;;;5041390;28;20032;-81
2023/11/03 09:39:18;;;;;;;11.57;1.10;;;12.00;97.70;;;;;;5041491;28;20112;-81
2023/11/03 09:42:13;;;;;;;6.35;0.95;;;12.00;97.20;;;;;;5040656;28;20516;-81
2023/11/03 09:44:39;;;;;;;8.18;1.42;;;12.00;96.90;;;;;;5039527;28;20420;-81
2023/11/03 09:47:05;;;;;;;16.08;1.63;;;11.90;96.50;;;;;;5041453;28;20055;-80
2023/11/03 09:49:32;;;;;;;9.70;1.00;;;11.90;96.30;;;;;;5041848;28;20014;-81
2023/11/03 09:52:02;;;;;;;7.22;1.17;;;11.90;95.50;;;;;;5042982;28;20044;-81
2023/11/03 09:54:32;;;;;;;10.80;1.58;;;11.90;95.90;;;;;;5041232;28;20033;-81
2023/11/03 09:57:09;;;;;;;10.98;1.63;;;11.80;95.70;;;;;;5042026;28;20076;-81
2023/11/03 09:59:37;;;;;;;10.88;1.65;;;11.80;95.40;;;;;;5040622;28;20040;-81
2023/11/03 10:02:15;;;;;;;10.77;1.23;;;11.80;94.90;;;;;;5041779;28;20022;-81
2023/11/03 10:04:41;;;;;;;8.10;1.20;;;11.80;95.20;;;;;;5041454;28;20121;-80
2023/11/03 10:07:11;;;;;;;9.27;1.15;;;11.80;95.20;;;;;;5042742;28;20029;-81
2023/11/03 10:09:37;;;;;;;11.57;1.02;;;11.90;95.10;;;;;;5041980;28;20101;-81
2023/11/03 10:12:09;;;;;;;6.30;0.82;;;11.90;95.00;;;;;;5039890;28;20048;-81
2023/11/03 10:14:34;;;;;;;7.32;1.10;;;12.00;95.20;;;;;;5042055;28;20128;-81
2023/11/03 10:17:00;;;;;;;9.05;1.30;;;12.00;95.00;;;;;;5040532;28;20110;-80
2023/11/03 10:19:29;;;;;;;9.07;1.20;;;12.00;94.60;;;;;;5041229;28;20108;-80
2023/11/03 10:21:55;;;;;;;9.15;1.20;;;12.10;95.40;;;;;;5041345;28;20073;-81
2023/11/03 10:24:22;;;;;;;6.63;1.00;;;12.20;95.10;;;;;;5042189;28;20024;-80
2023/11/03 10:26:50;;;;;;;10.98;1.38;;;12.30;95.00;;;;;;5041467;28;20025;-81
2023/11/03 10:29:16;;;;;;;8.73;1.42;;;12.30;94.60;;;;;;5039497;28;20026;-81
2023/11/03 10:31:47;;;;;;;8.05;1.13;;;12.40;94.30;;;;;;5041591;28;20041;-81
2023/11/03 10:34:19;;;;;;;8.27;1.65;;;12.40;94.40;;;;;;5041846;28;20028;-81
2023/11/03 10:36:49;;;;;;;7.65;1.45;;;12.40;93.80;;;;;;5042266;28;20037;-81
2023/11/03 10:39:18;;;;;;;7.25;1.10;;;12.50;93.70;;;;;;5041229;28;20033;-81
2023/11/03 10:41:44;;;;;;;9.82;1.50;;;12.50;93.70;;;;;;5039760;28;20056;-81
2023/11/03 10:44:16;;;;;;;6.70;0.80;;;12.40;93.20;;;;;;5041502;28;20025;-82
2023/11/03 10:46:52;;;;;;;11.18;1.20;;;12.40;93.00;;;;;;5040970;28;20052;-81
2023/11/03 10:49:38;;;;;;;10.93;1.40;;;12.30;92.70;;;;;;5041989;28;20063;-81
2023/11/03 10:52:41;;;;;;;8.90;1.30;;;12.20;92.70;;;;;;5041046;28;20029;-81
2023/11/03 10:55:13;;;;;;;7.97;1.35;;;12.10;92.60;;;;;;4982145;28;20038;-80
2023/11/03 10:57:38;;;;;;;12.75;1.10;;;12.10;92.90;;;;;;5032135;28;20037;-81
2023/11/03 11:00:17;;;;;;;6.90;1.48;;;12.10;92.80;;;;;;5041283;28;20029;-80
2023/11/03 11:02:57;;;;;;;7.07;1.30;;;12.10;93.10;;;;;;5041564;28;20043;-81
2023/11/03 11:05:31;;;;;;;12.30;1.73;;;12.20;93.00;;;;;;5042637;28;20032;-81
2023/11/03 11:08:01;;;;;;;11.30;1.33;;;12.20;92.90;;;;;;5040675;28;20030;-80
2023/11/03 11:10:39;;;;;;;8.93;1.70;;;12.20;92.40;;;;;;5041893;28;20017;-81
2023/11/03 11:13:14;;;;;;;8.20;1.13;;;12.40;92.30;;;;;;5041927;28;20033;-80
2023/11/03 11:15:48;;;;;;;7.80;1.10;;;12.60;92.80;;;;;;5040280;28;20039;-81
2023/11/03 11:18:14;;;;;;;4.88;0.90;;;12.70;92.40;;;;;;5040953;28;20037;-81
2023/11/03 11:20:49;;;;;;;11.50;1.13;;;12.80;92.30;;;;;;5038988;28;20466;-81
2023/11/03 11:23:17;;;;;;;9.60;1.35;;;12.80;92.00;;;;;;5040700;28;20036;-81
2023/11/03 11:25:43;;;;;;;12.55;1.52;;;12.80;91.60;;;;;;5039715;28;20422;-81
2023/11/03 11:28:29;;;;;;;8.95;1.10;;;12.70;91.30;;;;;;5040109;28;20026;-81
2023/11/03 11:30:55;;;;;;;10.20;1.85;;;12.60;90.70;;;;;;5040826;28;20036;-81
2023/11/03 11:33:26;;;;;;;14.13;2.25;;;12.50;90.80;;;;;;5039249;28;20029;-81
2023/11/03 11:35:53;;;;;;;8.70;1.00;;;12.50;90.80;;;;;;5042544;28;20032;-81
2023/11/03 11:38:19;;;;;;;10.35;1.40;;;12.40;90.90;;;;;;5040390;28;20025;-81
2023/11/03 11:40:46;;;;;;;8.65;1.70;;;12.50;91.20;;;;;;5041899;28;20032;-81
2023/11/03 11:43:12;;;;;;;8.02;1.05;;;12.50;91.00;;;;;;5039927;28;20013;-81
2023/11/03 11:45:42;;;;;;;13.45;1.50;;;12.50;90.90;;;;;;5039787;28;20018;-81
2023/11/03 11:48:14;;;;;;;13.52;1.73;;;12.50;90.80;;;;;;5040483;28;20053;-81
2023/11/03 11:50:41;;;;;;;8.52;2.17;;;12.60;91.10;;;;;;5039097;28;20032;-81
2023/11/03 11:53:08;;;;;;;9.90;1.33;;;12.70;90.80;;;;;;5040348;28;20037;-81
2023/11/03 11:55:38;;;;;;;9.43;1.23;;;13.00;91.80;;;;;;5039388;28;20323;-81
2023/11/03 11:58:07;;;;;;;8.90;1.20;;;13.20;90.70;;;;;;5040730;28;20397;-80
2023/11/03 12:00:40;;;;;;;10.73;1.50;;;13.30;90.50;;;;;;5043971;28;20018;-81
2023/11/03 12:03:09;;;;;;;9.43;1.35;;;13.30;88.80;;;;;;5043108;28;20032;-81
2023/11/03 12:05:35;;;;;;;6.00;1.17;;;13.30;88.20;;;;;;5044587;28;20079;-81
2023/11/03 12:08:03;;;;;;;9.43;1.23;;;13.20;88.50;;;;;;5043957;28;20022;-81
2023/11/03 12:10:33;;;;;;;7.72;1.17;;;13.20;89.00;;;;;;5044232;28;20022;-81
2023/11/03 12:12:59;;;;;;;16.48;2.15;;;13.40;89.50;;;;;;5043153;28;20033;-80
2023/11/03 12:15:25;;;;;;;6.38;1.20;;;13.90;90.40;;;;;;5043528;28;20104;-81
2023/11/03 12:17:50;;;;;;;6.57;1.02;;;14.40;90.50;;;;;;5043624;28;20390;-81
2023/11/03 12:20:18;;;;;;;13.93;1.45;;;15.00;90.20;;;;;;5042882;28;20018;-81
2023/11/03 12:22:45;;;;;;;8.77;1.25;;;15.60;88.20;;;;;;5043964;28;20109;-81
2023/11/03 12:25:12;;;;;;;5.95;1.20;;;16.10;84.10;;;;;;5042263;28;20409;-81
2023/11/03 12:27:38;;;;;;;7.38;1.15;;;16.60;82.60;;;;;;5043502;28;20014;-82
2023/11/03 12:30:05;;;;;;;7.47;1.48;;;17.00;79.50;;;;;;5042930;28;20026;-82
2023/11/03 12:32:32;;;;;;;7.15;1.35;;;17.40;77.50;;;;;;5043092;28;20069;-82
2023/11/03 12:34:58;;;;;;;7.32;1.25;;;17.70;75.30;;;;;;5043770;28;20021;-82
2023/11/03 12:37:24;;;;;;;9.63;1.10;;;18.10;74.70;;;;;;5041952;28;20524;-82
2023/11/03 12:39:55;;;;;;;7.20;1.00;;;18.30;73.80;;;;;;5043639;28;20044;-82
2023/11/03 12:42:26;;;;;;;6.35;1.23;;;18.10;70.30;;;;;;5058829;28;20032;-81
2023/11/03 12:44:52;;;;;;;7.75;1.70;;;17.90;71.00;;;;;;5044829;28;20022;-81
2023/11/03 12:47:38;;;;;;;5.20;1.20;;;18.00;70.80;;;;;;5042364;28;20128;-81
2023/11/03 12:50:16;;;;;;;7.35;0.85;;;17.90;70.90;;;;;;5042368;28;20025;-81